Montclair, Virginia
Current Conditions -  °F | °C
As of 3:56 AM on Saturday 20 Dec 2014 (Local Time) from KNYG Reporting Station
Clear Clear  
Wind Chill: 18°   Ceiling: Unl
Heat Index: 25°   Visibility: 10mi
Dew Point: 21°   Wind: 6mph
Humidity: 85%   Direction: 310°NW
Pressure: 30.3"   Gusts: NA
Location:  38.61°N, 77.34°W
Report Text: KNYG 200856Z AUTO 31005KT 10SM CLR M04/M06 A3030 RMK AO2 SLP260 T10391061 51010 $
Loading
Personal Weather Stations






























Interactive Weather Map New forecast layout! Learn more

10-Day Weather Forecast

Advertisements
Track Severe Weather on mobile